createdAt,value
2022-09-07T00:00:47.391Z,17.8
2022-09-07T00:02:53.266Z,17.7
2022-09-07T00:04:59.015Z,17.6
2022-09-07T00:07:07.803Z,17.5
2022-09-07T00:13:25.253Z,17.3
2022-09-07T00:17:36.935Z,17.3
2022-09-07T00:19:42.707Z,17.3
2022-09-07T00:21:51.505Z,17.2
2022-09-07T00:28:08.972Z,17.1
2022-09-07T00:34:26.418Z,17.2
2022-09-07T00:36:35.219Z,17.2
2022-09-07T00:38:41.062Z,17.2
2022-09-07T00:40:46.885Z,17.2
2022-09-07T00:42:52.700Z,17.2
2022-09-07T00:44:58.528Z,17.1
2022-09-07T00:47:04.356Z,17
2022-09-07T00:49:10.172Z,16.9
2022-09-07T00:51:18.930Z,17
2022-09-07T00:55:30.613Z,17.1
2022-09-07T00:56:34.998Z,17.1
2022-09-07T01:00:47.180Z,16.9
2022-09-07T01:05:04.443Z,17.1
2022-09-07T01:07:07.601Z,17.2
2022-09-07T01:09:13.386Z,17.1
2022-09-07T01:11:19.226Z,17
2022-09-07T01:13:25.055Z,17.1
2022-09-07T01:17:36.681Z,17.1
2022-09-07T01:19:45.485Z,17
2022-09-07T01:21:51.295Z,17.1
2022-09-07T01:23:57.118Z,17.1
2022-09-07T01:32:20.390Z,17.1
2022-09-07T01:36:34.990Z,17
2022-09-07T01:38:40.824Z,17
2022-09-07T01:40:46.653Z,17.1
2022-09-07T01:44:58.271Z,17.1
2022-09-07T01:47:04.073Z,17.1
2022-09-07T01:49:12.882Z,17.2
2022-09-07T01:51:18.701Z,17.2
2022-09-07T01:53:24.515Z,17.2
2022-09-07T02:00:46.348Z,17.2
2022-09-07T02:02:55.195Z,17.2
2022-09-07T02:05:01.015Z,17.3
2022-09-07T02:07:06.760Z,17.3
2022-09-07T02:09:12.591Z,17.3
2022-09-07T02:11:18.386Z,17.3
2022-09-07T02:13:24.233Z,17.4
2022-09-07T02:15:30.114Z,17.4
2022-09-07T02:23:56.274Z,17.5
2022-09-07T02:26:02.044Z,17.5
2022-09-07T02:30:13.681Z,17.5
2022-09-07T02:34:28.272Z,17.4
2022-09-07T02:36:34.117Z,17.5
2022-09-07T02:38:39.894Z,17.5
2022-09-07T02:40:45.711Z,17.5
2022-09-07T02:42:51.520Z,17.5
2022-09-07T02:44:57.353Z,17.5
2022-09-07T02:47:07.721Z,17.6
2022-09-07T02:49:13.526Z,17.6
2022-09-07T02:51:19.338Z,17.7
2022-09-07T02:53:45.117Z,17.6
2022-09-07T02:55:50.937Z,17.6
2022-09-07T02:57:56.772Z,17.6
2022-09-07T03:00:05.575Z,17.6
2022-09-07T03:02:11.424Z,17.6
2022-09-07T03:06:22.969Z,17.6
2022-09-07T03:10:34.621Z,17.5
2022-09-07T03:12:40.438Z,17.5
2022-09-07T03:14:49.205Z,17.5
2022-09-07T03:23:12.446Z,17.5
2022-09-07T03:27:24.101Z,17.5
2022-09-07T03:29:32.886Z,17.5
2022-09-07T03:31:38.713Z,17.5
2022-09-07T03:33:44.513Z,17.5
2022-09-07T03:37:56.153Z,17.5
2022-09-07T03:46:22.435Z,17.6
2022-09-07T03:48:28.147Z,17.6
2022-09-07T03:49:32.510Z,17.6
2022-09-07T03:51:38.343Z,17.7
2022-09-07T03:53:44.188Z,17.7
2022-09-07T03:55:49.981Z,17.7
2022-09-07T03:57:58.768Z,17.7
2022-09-07T04:00:04.592Z,17.6
2022-09-07T04:04:16.235Z,17.6
2022-09-07T04:06:22.021Z,17.6
2022-09-07T04:08:27.982Z,17.6
2022-09-07T04:10:33.638Z,17.5
2022-09-07T04:12:42.426Z,17.5
2022-09-07T04:14:48.255Z,17.5
2022-09-07T04:16:54.141Z,17.5
2022-09-07T04:21:05.708Z,17.6
2022-09-07T04:31:37.719Z,17.5
2022-09-07T04:33:43.537Z,17.5
2022-09-07T04:37:55.186Z,17.5
2022-09-07T04:40:01.038Z,17.6
2022-09-07T04:42:09.745Z,17.5
2022-09-07T04:44:17.050Z,17.5
2022-09-07T04:46:21.429Z,17.5
2022-09-07T04:51:37.401Z,17.6
2022-09-07T04:53:43.209Z,17.6
2022-09-07T05:00:03.609Z,17.7
2022-09-07T05:02:09.440Z,17.7
2022-09-07T05:04:15.207Z,17.7
2022-09-07T05:06:21.018Z,17.7
2022-09-07T05:08:26.846Z,17.6
2022-09-07T05:10:35.602Z,17.6
2022-09-07T05:12:41.401Z,17.7
2022-09-07T05:14:47.224Z,17.6
2022-09-07T05:16:53.067Z,17.6
2022-09-07T05:18:58.862Z,17.7
2022-09-07T05:21:04.663Z,17.7
2022-09-07T05:25:19.247Z,17.8
2022-09-07T05:27:25.073Z,17.8
2022-09-07T05:37:54.139Z,17.9
2022-09-07T05:40:02.931Z,18
2022-09-07T05:42:08.713Z,17.9
2022-09-07T05:44:44.755Z,18
2022-09-07T05:45:18.890Z,18
2022-09-07T05:47:24.713Z,18
2022-09-07T05:49:30.538Z,18.1
2022-09-07T05:51:36.358Z,18.1
2022-09-07T05:53:45.113Z,18.1
2022-09-07T05:57:56.746Z,18.2
2022-09-07T06:00:02.549Z,18.3
2022-09-07T06:08:28.871Z,18.5
2022-09-07T06:12:41.785Z,18.6
2022-09-07T06:14:46.207Z,18.7
2022-09-07T06:16:52.112Z,18.7
2022-09-07T06:18:57.852Z,18.6
2022-09-07T06:21:04.048Z,18.5
2022-09-07T06:25:18.226Z,18.3
2022-09-07T06:27:24.055Z,18.3
2022-09-07T06:29:29.893Z,18.4
2022-09-07T06:31:35.807Z,18.4
2022-09-07T06:35:47.257Z,18.6
2022-09-07T06:37:56.027Z,18.6
2022-09-07T06:40:01.938Z,18.6
2022-09-07T06:42:07.643Z,18.5
2022-09-07T06:44:38.926Z,18.7
2022-09-07T06:47:04.823Z,18.7
2022-09-07T06:50:59.294Z,18.7
2022-09-07T06:53:34.371Z,18.7
2022-09-07T06:55:10.944Z,18.7
2022-09-07T06:57:16.743Z,18.9
2022-09-07T06:59:22.525Z,19
2022-09-07T07:01:28.369Z,19.1
2022-09-07T07:03:34.217Z,19.2
2022-09-07T07:05:42.908Z,19.5
2022-09-07T07:07:48.707Z,19.5
2022-09-07T07:09:54.545Z,19.4
2022-09-07T07:12:00.346Z,19.3
2022-09-07T07:14:06.140Z,19.8
2022-09-07T07:16:11.983Z,20.2
2022-09-07T07:20:26.469Z,20.5
2022-09-07T07:24:38.099Z,21.4
2022-09-07T07:29:04.084Z,20.4
2022-09-07T07:30:55.501Z,20
2022-09-07T07:33:01.332Z,19.8
2022-09-07T07:35:10.081Z,19.6
2022-09-07T07:37:15.852Z,19.6
2022-09-07T07:42:25.797Z,19.6
2022-09-07T07:44:31.569Z,19.6
2022-09-07T07:46:37.434Z,19.7
2022-09-07T07:48:46.141Z,20
2022-09-07T07:50:51.940Z,20.8
2022-09-07T07:55:43.050Z,23.5
2022-09-07T07:57:09.290Z,24.6
2022-09-07T07:59:15.857Z,24.2
2022-09-07T08:01:20.855Z,22.5
2022-09-07T08:03:29.637Z,21.4
2022-09-07T08:07:41.100Z,21.1
2022-09-07T08:09:46.852Z,21
2022-09-07T08:11:52.616Z,20.8
2022-09-07T08:13:58.386Z,21
2022-09-07T08:24:30.210Z,20.4
2022-09-07T08:26:35.996Z,20.5
2022-09-07T08:28:41.757Z,20.8
2022-09-07T08:30:47.526Z,20.8
2022-09-07T08:32:56.261Z,22.2
2022-09-07T08:35:02.069Z,22.9
2022-09-07T08:37:07.797Z,23.9
2022-09-07T08:38:12.198Z,24.2
2022-09-07T08:40:18.043Z,24.2
2022-09-07T08:42:23.698Z,23.8
2022-09-07T08:44:29.435Z,23.8
2022-09-07T08:46:38.288Z,23.3
2022-09-07T08:52:56.991Z,23.6
2022-09-07T08:55:02.707Z,23.9
2022-09-07T08:57:22.944Z,24
2022-09-07T08:59:14.181Z,24.8
2022-09-07T09:01:34.258Z,25.6
2022-09-07T09:05:34.519Z,24.8
2022-09-07T09:07:40.027Z,24.1
2022-09-07T09:09:45.757Z,23.4
2022-09-07T09:11:51.447Z,23.5
2022-09-07T09:13:57.147Z,24.5
2022-09-07T09:16:05.930Z,25.2
2022-09-07T09:18:14.407Z,25.7
2022-09-07T09:20:17.260Z,26
2022-09-07T09:22:22.968Z,25.2
2022-09-07T09:28:40.072Z,24.4
2022-09-07T09:30:48.867Z,23.8
2022-09-07T09:36:04.498Z,25.3
2022-09-07T09:38:10.223Z,25.8
2022-09-07T09:40:15.991Z,26.4
2022-09-07T09:42:21.601Z,26.5
2022-09-07T09:44:30.307Z,26.5
2022-09-07T09:46:36.023Z,26.5
2022-09-07T09:48:41.721Z,26.7
2022-09-07T09:52:53.042Z,27.6
2022-09-07T09:55:23.205Z,27.6
2022-09-07T09:57:04.423Z,27.4
2022-09-07T10:01:23.119Z,27.8
2022-09-07T10:05:30.105Z,28
2022-09-07T10:07:35.770Z,27.6
2022-09-07T10:09:41.421Z,27.1
2022-09-07T10:12:06.307Z,27.1
2022-09-07T10:18:07.078Z,27
2022-09-07T10:22:18.380Z,26.8
2022-09-07T10:26:29.691Z,27
2022-09-07T10:29:07.167Z,27.1
2022-09-07T10:32:49.647Z,26.9
2022-09-07T10:35:20.633Z,26.7
2022-09-07T10:37:26.276Z,26.6
2022-09-07T10:39:32.015Z,26.3
2022-09-07T10:41:40.571Z,26.4
2022-09-07T10:43:46.202Z,26.5
2022-09-07T10:45:51.935Z,27.1
2022-09-07T10:47:57.496Z,26.8
2022-09-07T10:50:23.819Z,27
2022-09-07T10:52:08.751Z,27.2
2022-09-07T10:54:30.704Z,27.3
2022-09-07T10:56:23.019Z,27.2
2022-09-07T11:00:34.264Z,26.3
2022-09-07T11:02:40.208Z,26.1
2022-09-07T11:06:51.115Z,26.1
2022-09-07T11:09:18.028Z,25.8
2022-09-07T11:11:05.388Z,25.5
2022-09-07T11:13:11.114Z,25.7
2022-09-07T11:15:16.649Z,25.6
2022-09-07T11:17:22.316Z,25.8
2022-09-07T11:19:36.235Z,25.8
2022-09-07T11:21:56.949Z,26.1
2022-09-07T11:23:41.018Z,26
2022-09-07T11:25:47.888Z,25.5
2022-09-07T11:27:53.547Z,25.5
2022-09-07T11:29:59.212Z,25.3
2022-09-07T11:33:09.228Z,25.6
2022-09-07T11:37:20.565Z,25.7
2022-09-07T11:39:29.308Z,26.1
2022-09-07T11:41:34.929Z,26.3
2022-09-07T11:43:40.606Z,26.4
2022-09-07T11:47:51.954Z,25.9
2022-09-07T11:49:59.531Z,25.8
2022-09-07T11:52:05.406Z,25.3
2022-09-07T11:54:12.022Z,25.1
2022-09-07T11:56:17.734Z,25.6
2022-09-07T11:58:23.458Z,26.1
2022-09-07T12:00:29.117Z,26.1
2022-09-07T12:02:57.839Z,26
2022-09-07T12:04:40.590Z,25.8
2022-09-07T12:15:11.956Z,25.9
2022-09-07T12:17:17.660Z,25.8
2022-09-07T12:19:23.377Z,25.7
2022-09-07T12:21:29.045Z,25.7
2022-09-07T12:23:37.742Z,25.9
2022-09-07T12:25:43.459Z,25.9
2022-09-07T12:27:49.174Z,25.7
2022-09-07T12:28:53.494Z,25.6
2022-09-07T12:30:59.262Z,25.5
2022-09-07T12:33:04.903Z,25.6
2022-09-07T12:35:10.595Z,25.7
2022-09-07T12:37:19.295Z,26.2
2022-09-07T12:39:24.989Z,26.1
2022-09-07T12:41:30.688Z,26.2
2022-09-07T12:45:42.113Z,26.6
2022-09-07T12:47:49.252Z,26.5
2022-09-07T12:49:53.522Z,26.5
2022-09-07T12:52:13.852Z,26.3
2022-09-07T12:54:07.857Z,26.5
2022-09-07T12:56:17.173Z,26.7
2022-09-07T12:58:19.258Z,26.6
2022-09-07T13:00:24.944Z,26.2
2022-09-07T13:02:30.808Z,26
2022-09-07T13:04:36.341Z,26.4
2022-09-07T13:07:03.220Z,27.2
2022-09-07T13:13:02.104Z,27.3
2022-09-07T13:15:14.638Z,27.4
2022-09-07T13:19:19.192Z,25.9
2022-09-07T13:21:28.784Z,26.1
2022-09-07T13:25:39.292Z,26.4
2022-09-07T13:26:45.432Z,26.5
2022-09-07T13:28:49.323Z,26.5
2022-09-07T13:30:55.101Z,26.5
2022-09-07T13:33:08.574Z,26.5
2022-09-07T13:35:09.428Z,26.6
2022-09-07T13:37:15.116Z,26.7
2022-09-07T13:39:20.824Z,26.6
2022-09-07T13:41:26.519Z,26
2022-09-07T13:45:38.061Z,25.9
2022-09-07T13:47:43.625Z,26.2
2022-09-07T13:49:55.681Z,27.1
2022-09-07T13:51:58.051Z,27.1
2022-09-07T13:54:03.763Z,27.1
2022-09-07T13:56:09.463Z,27.3
2022-09-07T14:00:20.863Z,27.2
2022-09-07T14:02:26.582Z,26.7
2022-09-07T14:04:35.245Z,25.9
2022-09-07T14:06:40.969Z,25.9
2022-09-07T14:08:46.672Z,25.9
2022-09-07T14:10:52.377Z,26.2
2022-09-07T14:12:58.067Z,26.4
2022-09-07T14:15:08.356Z,26.7
2022-09-07T14:17:09.465Z,26.8
2022-09-07T14:19:18.172Z,26.6
2022-09-07T14:21:23.878Z,26.4
2022-09-07T14:23:29.638Z,26.1
2022-09-07T14:26:17.223Z,26.6
2022-09-07T14:28:06.390Z,26.7
2022-09-07T14:30:12.081Z,26.8
2022-09-07T14:32:20.764Z,27.3
2022-09-07T14:42:49.908Z,27.2
2022-09-07T14:44:54.960Z,27.3
2022-09-07T14:47:03.646Z,27.2
2022-09-07T14:49:09.411Z,27.2
2022-09-07T14:51:30.473Z,27.1
2022-09-07T14:53:35.827Z,27.1
2022-09-07T14:55:28.022Z,26.8
2022-09-07T14:57:33.741Z,26.7
2022-09-07T14:59:39.404Z,26.5
2022-09-07T15:01:48.236Z,26.6
2022-09-07T15:03:53.818Z,26.6
2022-09-07T15:06:01.170Z,26.6
2022-09-07T15:08:05.218Z,26.4
2022-09-07T15:10:10.902Z,26.2
2022-09-07T15:12:17.621Z,26.1
2022-09-07T15:14:22.315Z,26.1
2022-09-07T15:18:36.736Z,25.9
2022-09-07T15:20:42.437Z,25.9
2022-09-07T15:21:46.820Z,26
2022-09-07T15:23:52.525Z,25.9
2022-09-07T15:25:58.231Z,25.8
2022-09-07T15:28:03.946Z,25.8
2022-09-07T15:30:12.675Z,25.7
2022-09-07T15:32:18.470Z,25.8
2022-09-07T15:34:24.670Z,25.9
2022-09-07T15:39:00.295Z,26.2
2022-09-07T15:43:03.035Z,26.4
2022-09-07T15:44:55.692Z,26.3
2022-09-07T15:49:07.133Z,26.3
2022-09-07T15:55:24.302Z,26.1
2022-09-07T15:57:56.853Z,26
2022-09-07T15:59:38.727Z,25.9
2022-09-07T16:05:55.906Z,25.7
2022-09-07T16:08:26.034Z,25.7
2022-09-07T16:10:07.322Z,25.8
2022-09-07T16:14:21.766Z,25.8
2022-09-07T16:17:26.665Z,25.8
2022-09-07T16:18:33.503Z,25.8
2022-09-07T16:19:41.054Z,25.8
2022-09-07T16:21:43.279Z,25.7
2022-09-07T16:23:48.999Z,25.7
2022-09-07T16:25:54.719Z,25.9
2022-09-07T16:28:03.451Z,26
2022-09-07T16:30:09.169Z,25.9
2022-09-07T16:32:44.499Z,25.9
2022-09-07T16:34:20.622Z,25.8
2022-09-07T16:36:26.342Z,25.7
2022-09-07T16:40:37.787Z,25.5
2022-09-07T16:42:46.499Z,25.2
2022-09-07T16:44:52.590Z,25.1
2022-09-07T16:46:57.953Z,25
2022-09-07T16:49:03.676Z,25.1
2022-09-07T16:53:15.145Z,25.2
2022-09-07T17:03:46.888Z,24.9
2022-09-07T17:05:52.551Z,24.9
2022-09-07T17:10:04.058Z,24.7
2022-09-07T17:12:12.801Z,24.6
2022-09-07T17:14:18.523Z,24.6
2022-09-07T17:16:24.358Z,24.5
2022-09-07T17:19:34.666Z,24.3
2022-09-07T17:23:53.938Z,24.2
2022-09-07T17:25:54.631Z,24.2
2022-09-07T17:28:00.391Z,24.2
2022-09-07T17:30:06.648Z,24.2
2022-09-07T17:32:26.346Z,24.2
2022-09-07T17:34:17.672Z,24.1
2022-09-07T17:36:23.990Z,24
2022-09-07T17:40:38.838Z,23.9
2022-09-07T17:44:52.833Z,23.8
2022-09-07T17:51:06.733Z,23.8
2022-09-07T17:53:12.495Z,23.8
2022-09-07T17:55:21.250Z,23.8
2022-09-07T17:57:27.032Z,23.7
2022-09-07T18:01:38.602Z,23.6
2022-09-07T18:03:44.380Z,23.4
2022-09-07T18:05:50.105Z,23.4
2022-09-07T18:07:55.854Z,23.4
2022-09-07T18:10:04.607Z,23.3
2022-09-07T18:12:10.404Z,23.2
2022-09-07T18:14:16.144Z,23.2
2022-09-07T18:16:47.866Z,23.1
2022-09-07T18:18:53.116Z,23.1
2022-09-07T18:23:07.633Z,23
2022-09-07T18:25:13.399Z,22.9
2022-09-07T18:29:29.496Z,22.7
2022-09-07T18:31:30.778Z,22.7
2022-09-07T18:33:36.538Z,22.7
2022-09-07T18:35:42.288Z,22.6
2022-09-07T18:39:56.895Z,22.6
2022-09-07T18:42:02.619Z,22.6
2022-09-07T18:45:27.082Z,22.6
2022-09-07T18:46:14.172Z,22.5
2022-09-07T18:48:19.958Z,22.5
2022-09-07T18:50:25.705Z,22.4
2022-09-07T18:52:53.520Z,22.4
2022-09-07T18:54:40.251Z,22.4
2022-09-07T18:56:46.040Z,22.4
2022-09-07T18:58:51.810Z,22.4
2022-09-07T19:00:57.717Z,22.4
2022-09-07T19:03:03.385Z,22.4
2022-09-07T19:07:17.915Z,22.3
2022-09-07T19:09:23.701Z,22.2
2022-09-07T19:11:29.470Z,22.2
2022-09-07T19:12:33.866Z,22.2
2022-09-07T19:14:39.642Z,22.1
2022-09-07T19:16:45.470Z,22.1
2022-09-07T19:18:51.203Z,22
2022-09-07T19:20:59.951Z,21.9
2022-09-07T19:23:05.752Z,21.8
2022-09-07T19:25:11.531Z,21.7
2022-09-07T19:27:17.319Z,21.6
2022-09-07T19:29:23.104Z,21.6
2022-09-07T19:31:28.929Z,21.6
2022-09-07T19:33:34.668Z,21.6
2022-09-07T19:35:43.426Z,21.6
2022-09-07T19:37:49.244Z,21.6
2022-09-07T19:39:55.300Z,21.6
2022-09-07T19:42:00.783Z,21.5
2022-09-07T19:48:18.146Z,21.3
2022-09-07T19:50:26.904Z,21
2022-09-07T19:52:32.702Z,20.9
2022-09-07T19:54:38.500Z,20.8
2022-09-07T19:56:44.294Z,20.9
2022-09-07T19:58:50.089Z,21
2022-09-07T20:00:55.930Z,21
2022-09-07T20:03:01.665Z,20.9
2022-09-07T20:05:10.426Z,20.9
2022-09-07T20:07:16.213Z,20.9
2022-09-07T20:09:22.055Z,20.9
2022-09-07T20:10:26.416Z,20.9
2022-09-07T20:14:37.982Z,20.7
2022-09-07T20:16:43.858Z,20.7
2022-09-07T20:18:52.543Z,20.6
2022-09-07T20:20:58.338Z,20.6
2022-09-07T20:23:04.126Z,20.5
2022-09-07T20:25:12.970Z,20.4
2022-09-07T20:27:15.703Z,20.3
2022-09-07T20:29:29.044Z,20.3
2022-09-07T20:31:27.350Z,20.2
2022-09-07T20:33:36.110Z,20.2
2022-09-07T20:39:53.576Z,20.1
2022-09-07T20:50:25.507Z,20.2
2022-09-07T20:52:31.287Z,20.1
2022-09-07T20:54:37.119Z,20.1
2022-09-07T20:56:44.553Z,20.1
2022-09-07T20:58:50.301Z,20.1
2022-09-07T21:00:56.179Z,20
2022-09-07T21:03:04.896Z,19.9
2022-09-07T21:05:10.687Z,19.9
2022-09-07T21:07:16.521Z,19.9
2022-09-07T21:10:26.734Z,19.8
2022-09-07T21:18:52.926Z,19.7
2022-09-07T21:23:04.540Z,19.7
2022-09-07T21:25:10.342Z,19.6
2022-09-07T21:37:48.156Z,19.4
2022-09-07T21:39:54.038Z,19.4
2022-09-07T21:46:14.386Z,19.3
2022-09-07T21:48:20.193Z,19.2
2022-09-07T21:50:25.993Z,19.2
2022-09-07T21:52:31.807Z,19.1
2022-09-07T21:54:37.635Z,19
2022-09-07T21:56:46.535Z,19
2022-09-07T22:03:03.894Z,19
2022-09-07T22:05:09.689Z,19.1
2022-09-07T22:07:40.966Z,19
2022-09-07T22:09:46.819Z,18.9
2022-09-07T22:11:52.617Z,18.9
2022-09-07T22:14:01.403Z,18.9
2022-09-07T22:16:07.273Z,18.9
2022-09-07T22:18:13.021Z,18.8
2022-09-07T22:20:18.815Z,18.7
2022-09-07T22:22:24.614Z,18.7
2022-09-07T22:24:30.449Z,18.7
2022-09-07T22:26:36.254Z,18.7
2022-09-07T22:28:45.078Z,18.7
2022-09-07T22:30:50.887Z,18.7
2022-09-07T22:32:56.678Z,18.7
2022-09-07T22:35:02.490Z,18.7
2022-09-07T22:37:08.315Z,18.8
2022-09-07T22:39:14.148Z,18.8
2022-09-07T22:41:19.941Z,18.8
2022-09-07T22:45:34.547Z,18.8
2022-09-07T22:49:46.130Z,18.9
2022-09-07T22:56:03.580Z,19
2022-09-07T23:00:18.181Z,19
2022-09-07T23:02:23.971Z,19
2022-09-07T23:05:34.228Z,19
2022-09-07T23:09:45.841Z,19
2022-09-07T23:11:54.620Z,19
2022-09-07T23:14:00.459Z,18.9
2022-09-07T23:16:06.412Z,19
2022-09-07T23:18:12.081Z,19
2022-09-07T23:20:17.906Z,18.9
2022-09-07T23:22:23.714Z,19
2022-09-07T23:26:38.333Z,18.9
2022-09-07T23:28:44.158Z,18.9
2022-09-07T23:30:49.959Z,18.9
2022-09-07T23:32:55.780Z,18.9
2022-09-07T23:35:01.648Z,18.9
2022-09-07T23:37:07.422Z,19
2022-09-07T23:39:13.258Z,18.9
2022-09-07T23:41:22.051Z,19
2022-09-07T23:43:27.875Z,19.1
2022-09-07T23:45:33.658Z,19.1
2022-09-07T23:47:39.452Z,19.1
2022-09-07T23:49:45.279Z,19
2022-09-07T23:53:56.895Z,19
2022-09-07T23:56:05.695Z,18.9
